Time,TemperatureF,DewpointF,PressureIn,WindDirection,WindDirectionDegrees,WindSpeedMPH,WindSpeedGustMPH,Humidity,HourlyPrecipIn,Conditions,Clouds,dailyrainin,SoftwareType,DateUTC
2013-11-15 00:00:00,76.3,76.3,30.01,ENE,75,11.0,11.0,100,0.00,,,0.00,Wunderground v.1.15,2013-11-15 05:00:00,
2013-11-15 00:05:00,76.3,76.3,30.01,ENE,62,11.0,11.0,100,0.00,,,0.00,Wunderground v.1.15,2013-11-15 05:05:00,
2013-11-15 00:10:00,76.0,76.0,30.01,NE,51,10.0,10.0,100,0.00,,,0.00,Wunderground v.1.15,2013-11-15 05:10:00,
2013-11-15 00:15:00,75.8,75.8,30.00,NE,56,12.0,12.0,100,0.00,,,0.00,Wunderground v.1.15,2013-11-15 05:15:00,
2013-11-15 00:20:00,76.0,76.0,30.00,NE,47,12.0,12.0,100,0.00,,,0.00,Wunderground v.1.15,2013-11-15 05:20:00,
2013-11-15 00:25:00,76.0,76.0,30.00,ENE,65,12.0,14.0,100,0.00,,,0.00,Wunderground v.1.15,2013-11-15 05:25:00,
2013-11-15 00:35:00,76.3,76.3,30.00,ENE,76,12.0,17.0,100,0.00,,,0.00,Wunderground v.1.15,2013-11-15 05:35:00,
2013-11-15 00:45:00,76.7,76.7,29.99,East,85,9.0,11.0,100,0.00,,,0.00,Wunderground v.1.15,2013-11-15 05:45:00,
2013-11-15 00:50:00,76.7,76.7,29.99,SE,126,9.0,12.0,100,0.00,,,0.00,Wunderground v.1.15,2013-11-15 05:50:00,
2013-11-15 01:00:00,76.8,76.8,29.99,ENE,76,10.0,10.0,100,0.00,,,0.00,Wunderground v.1.15,2013-11-15 06:00:00,
2013-11-15 01:05:00,77.0,77.0,29.99,East,85,10.0,11.0,100,0.00,,,0.00,Wunderground v.1.15,2013-11-15 06:05:00,
2013-11-15 01:15:00,77.0,77.0,29.98,ENE,64,10.0,14.0,100,0.00,,,0.00,Wunderground v.1.15,2013-11-15 06:15:00,
2013-11-15 01:25:00,76.0,76.0,29.98,ENE,72,10.0,12.0,100,0.00,,,0.00,Wunderground v.1.15,2013-11-15 06:25:00,
2013-11-15 01:30:00,75.8,75.8,29.98,ENE,68,9.0,9.0,100,0.00,,,0.00,Wunderground v.1.15,2013-11-15 06:30:00,
2013-11-15 01:40:00,75.8,75.8,29.98,ESE,116,9.0,9.0,100,0.00,,,0.00,Wunderground v.1.15,2013-11-15 06:40:00,
2013-11-15 01:50:00,75.8,75.8,29.98,NE,35,10.0,10.0,100,0.00,,,0.00,Wunderground v.1.15,2013-11-15 06:50:00,
2013-11-15 01:55:00,75.8,75.8,29.98,NE,52,11.0,12.0,100,0.00,,,0.00,Wunderground v.1.15,2013-11-15 06:55:00,
2013-11-15 02:05:00,76.3,76.3,29.97,East,89,8.0,11.0,100,0.00,,,0.00,Wunderground v.1.15,2013-11-15 07:05:00,
2013-11-15 02:15:00,76.5,76.5,29.97,ENE,66,9.0,11.0,100,0.00,,,0.00,Wunderground v.1.15,2013-11-15 07:15:00,
2013-11-15 02:25:00,76.8,76.8,29.97,ENE,72,9.0,10.0,100,0.00,,,0.00,Wunderground v.1.15,2013-11-15 07:25:00,
2013-11-15 02:30:00,76.8,76.8,29.97,ENE,73,8.0,8.0,100,0.00,,,0.00,Wunderground v.1.15,2013-11-15 07:30:00,
2013-11-15 02:40:00,76.8,76.8,29.97,ENE,72,9.0,9.0,100,0.00,,,0.00,Wunderground v.1.15,2013-11-15 07:40:00,
2013-11-15 02:50:00,76.8,76.8,29.95,ENE,72,10.0,10.0,100,0.00,,,0.00,Wunderground v.1.15,2013-11-15 07:50:00,
2013-11-15 02:55:00,77.0,77.0,29.95,East,82,10.0,11.0,100,0.00,,,0.00,Wunderground v.1.15,2013-11-15 07:55:00,
2013-11-15 03:05:00,76.8,76.8,29.95,ENE,68,9.0,9.0,100,0.00,,,0.00,Wunderground v.1.15,2013-11-15 08:05:00,
2013-11-15 03:10:00,77.0,77.0,29.95,NE,51,10.0,10.0,100,0.00,,,0.00,Wunderground v.1.15,2013-11-15 08:10:00,
2013-11-15 03:20:00,76.8,76.8,29.95,East,86,8.0,8.0,100,0.00,,,0.00,Wunderground v.1.15,2013-11-15 08:20:00,
2013-11-15 03:25:00,76.8,76.8,29.95,ENE,73,9.0,13.0,100,0.00,,,0.00,Wunderground v.1.15,2013-11-15 08:25:00,
2013-11-15 03:35:00,77.0,77.0,29.95,ENE,65,8.0,10.0,100,0.00,,,0.00,Wunderground v.1.15,2013-11-15 08:35:00,
2013-11-15 03:45:00,77.0,77.0,29.95,East,97,7.0,11.0,100,0.00,,,0.00,Wunderground v.1.15,2013-11-15 08:45:00,
2013-11-15 03:55:00,77.0,77.0,29.95,NE,55,9.0,13.0,100,0.00,,,0.00,Wunderground v.1.15,2013-11-15 08:55:00,
2013-11-15 04:05:00,77.0,77.0,29.95,ENE,62,9.0,11.0,100,0.00,,,0.00,Wunderground v.1.15,2013-11-15 09:05:00,
2013-11-15 04:10:00,77.0,77.0,29.95,ENE,65,8.0,8.0,100,0.00,,,0.00,Wunderground v.1.15,2013-11-15 09:10:00,
2013-11-15 04:20:00,77.0,77.0,29.96,ENE,65,8.0,9.0,100,0.00,,,0.00,Wunderground v.1.15,2013-11-15 09:20:00,
2013-11-15 04:30:00,77.2,77.2,29.96,ENE,72,9.0,9.0,100,0.00,,,0.00,Wunderground v.1.15,2013-11-15 09:30:00,
2013-11-15 04:35:00,77.0,77.0,29.96,ENE,72,9.0,10.0,100,0.00,,,0.00,Wunderground v.1.15,2013-11-15 09:35:00,
2013-11-15 04:45:00,77.2,77.2,29.96,East,86,8.0,9.0,100,0.00,,,0.00,Wunderground v.1.15,2013-11-15 09:45:00,
2013-11-15 04:55:00,77.0,77.0,29.96,ESE,106,7.0,7.0,100,0.00,,,0.00,Wunderground v.1.15,2013-11-15 09:55:00,
2013-11-15 05:00:00,77.2,77.2,29.96,ESE,121,7.0,12.0,100,0.00,,,0.00,Wunderground v.1.15,2013-11-15 10:00:00,
2013-11-15 05:10:00,77.0,77.0,29.96,ESE,109,7.0,13.0,100,0.00,,,0.00,Wunderground v.1.15,2013-11-15 10:10:00,
2013-11-15 05:20:00,77.2,77.2,29.96,SE,127,8.0,8.0,100,0.00,,,0.00,Wunderground v.1.15,2013-11-15 10:20:00,
2013-11-15 05:30:00,77.2,77.2,29.97,ESE,102,8.0,8.0,100,0.00,,,0.00,Wunderground v.1.15,2013-11-15 10:30:00,
2013-11-15 05:40:00,77.2,77.2,29.97,East,100,10.0,11.0,100,0.00,,,0.00,Wunderground v.1.15,2013-11-15 10:40:00,
2013-11-15 05:45:00,77.4,77.4,29.96,East,100,10.0,11.0,100,0.00,,,0.00,Wunderground v.1.15,2013-11-15 10:45:00,
2013-11-15 05:55:00,77.2,77.2,29.96,ENE,65,7.0,12.0,100,0.00,,,0.00,Wunderground v.1.15,2013-11-15 10:55:00,
2013-11-15 06:00:00,77.2,77.2,29.97,ENE,68,7.0,8.0,100,0.00,,,0.00,Wunderground v.1.15,2013-11-15 11:00:00,
2013-11-15 06:10:00,77.2,77.2,29.97,ESE,112,8.0,8.0,100,0.00,,,0.00,Wunderground v.1.15,2013-11-15 11:10:00,
2013-11-15 06:15:00,77.2,77.2,29.97,East,79,8.0,10.0,100,0.00,,,0.00,Wunderground v.1.15,2013-11-15 11:15:00,
2013-11-15 06:25:00,77.0,77.0,29.97,East,82,9.0,11.0,100,0.00,,,0.00,Wunderground v.1.15,2013-11-15 11:25:00,
2013-11-15 06:30:00,77.0,77.0,29.98,ENE,69,10.0,10.0,100,0.00,,,0.00,Wunderground v.1.15,2013-11-15 11:30:00,
2013-11-15 06:40:00,76.8,76.8,29.98,NE,38,8.0,8.0,100,0.00,,,0.00,Wunderground v.1.15,2013-11-15 11:40:00,
2013-11-15 06:45:00,76.7,76.7,29.97,East,80,9.0,9.0,100,0.00,,,0.00,Wunderground v.1.15,2013-11-15 11:45:00,
2013-11-15 06:55:00,76.7,76.7,29.97,East,96,9.0,12.0,100,0.00,,,0.00,Wunderground v.1.15,2013-11-15 11:55:00,
2013-11-15 07:05:00,76.7,76.7,29.98,NE,42,10.0,13.0,100,0.00,,,0.00,Wunderground v.1.15,2013-11-15 12:05:00,
2013-11-15 07:10:00,76.7,76.7,29.98,ENE,68,10.0,10.0,100,0.00,,,0.00,Wunderground v.1.15,2013-11-15 12:10:00,
2013-11-15 07:20:00,76.8,76.8,29.98,ENE,73,11.0,11.0,100,0.00,,,0.00,Wunderground v.1.15,2013-11-15 12:20:00,
2013-11-15 07:25:00,76.8,76.8,29.98,ENE,71,11.0,11.0,100,0.00,,,0.00,Wunderground v.1.15,2013-11-15 12:25:00,
2013-11-15 07:35:00,77.2,77.2,29.97,East,82,10.0,10.0,100,0.00,,,0.00,Wunderground v.1.15,2013-11-15 12:35:00,
2013-11-15 07:40:00,77.4,77.4,29.97,ENE,62,11.0,11.0,100,0.00,,,0.00,Wunderground v.1.15,2013-11-15 12:40:00,
2013-11-15 07:50:00,77.6,77.6,29.97,NE,44,12.0,12.0,100,0.00,,,0.00,Wunderground v.1.15,2013-11-15 12:50:00,
2013-11-15 07:55:00,77.7,77.7,29.97,East,86,12.0,12.0,100,0.00,,,0.00,Wunderground v.1.15,2013-11-15 12:55:00,
2013-11-15 08:05:00,77.9,77.9,29.98,NE,54,11.0,11.0,100,0.00,,,0.00,Wunderground v.1.15,2013-11-15 13:05:00,
2013-11-15 08:15:00,77.7,77.7,29.99,ENE,71,9.0,10.0,100,0.00,,,0.00,Wunderground v.1.15,2013-11-15 13:15:00,
2013-11-15 08:20:00,77.9,77.9,29.99,ENE,69,9.0,9.0,100,0.00,,,0.00,Wunderground v.1.15,2013-11-15 13:20:00,
2013-11-15 08:30:00,77.9,77.9,29.99,NE,55,8.0,8.0,100,0.00,,,0.00,Wunderground v.1.15,2013-11-15 13:30:00,
2013-11-15 08:40:00,77.9,77.9,29.99,ENE,64,10.0,10.0,100,0.00,,,0.00,Wunderground v.1.15,2013-11-15 13:40:00,
2013-11-15 08:45:00,78.1,78.1,29.99,ENE,58,10.0,10.0,100,0.00,,,0.00,Wunderground v.1.15,2013-11-15 13:45:00,
2013-11-15 08:55:00,77.9,77.9,29.99,NE,40,9.0,9.0,100,0.00,,,0.00,Wunderground v.1.15,2013-11-15 13:55:00,
2013-11-15 09:05:00,78.1,78.1,29.99,SE,124,10.0,11.0,100,0.00,,,0.00,Wunderground v.1.15,2013-11-15 14:05:00,
2013-11-15 09:10:00,78.1,78.1,29.99,ENE,73,10.0,10.0,100,0.00,,,0.00,Wunderground v.1.15,2013-11-15 14:10:00,
2013-11-15 09:20:00,78.1,78.1,29.99,ENE,59,11.0,11.0,100,0.00,,,0.00,Wunderground v.1.15,2013-11-15 14:20:00,
2013-11-15 09:30:00,78.3,78.3,29.99,ENE,58,11.0,12.0,100,0.00,,,0.00,Wunderground v.1.15,2013-11-15 14:30:00,
2013-11-15 09:35:00,78.3,78.3,29.99,ENE,69,10.0,12.0,100,0.00,,,0.00,Wunderground v.1.15,2013-11-15 14:35:00,
2013-11-15 09:45:00,78.3,78.3,30.00,ENE,65,10.0,16.0,100,0.00,,,0.00,Wunderground v.1.15,2013-11-15 14:45:00,
2013-11-15 09:50:00,78.3,78.3,30.00,East,85,11.0,13.0,100,0.00,,,0.00,Wunderground v.1.15,2013-11-15 14:50:00,
2013-11-15 10:00:00,78.5,78.5,30.00,ENE,66,11.0,11.0,100,0.00,,,0.00,Wunderground v.1.15,2013-11-15 15:00:00,
2013-11-15 10:05:00,78.6,78.6,30.00,NE,55,10.0,13.0,100,0.00,,,0.00,Wunderground v.1.15,2013-11-15 15:05:00,
2013-11-15 10:15:00,78.5,78.5,30.00,NNE,32,11.0,13.0,100,0.00,,,0.00,Wunderground v.1.15,2013-11-15 15:15:00,
2013-11-15 10:25:00,78.6,78.6,30.00,NNE,20,11.0,11.0,100,0.00,,,0.00,Wunderground v.1.15,2013-11-15 15:25:00,
2013-11-15 10:30:00,78.5,78.5,30.00,ENE,58,10.0,10.0,100,0.00,,,0.00,Wunderground v.1.15,2013-11-15 15:30:00,
2013-11-15 10:40:00,78.5,78.5,30.00,East,90,9.0,11.0,100,0.00,,,0.00,Wunderground v.1.15,2013-11-15 15:40:00,
2013-11-15 10:50:00,78.5,78.5,30.00,ENE,62,11.0,11.0,100,0.00,,,0.00,Wunderground v.1.15,2013-11-15 15:50:00,
2013-11-15 11:00:00,78.5,78.5,30.00,East,89,9.0,11.0,100,0.00,,,0.00,Wunderground v.1.15,2013-11-15 16:00:00,
2013-11-15 11:05:00,78.5,78.5,30.00,NE,44,10.0,13.0,100,0.00,,,0.00,Wunderground v.1.15,2013-11-15 16:05:00,
2013-11-15 11:15:00,78.5,78.5,30.00,East,92,9.0,14.0,100,0.00,,,0.00,Wunderground v.1.15,2013-11-15 16:15:00,
2013-11-15 11:25:00,78.5,78.5,30.00,ENE,61,9.0,11.0,100,0.00,,,0.00,Wunderground v.1.15,2013-11-15 16:25:00,
2013-11-15 11:30:00,78.5,78.5,29.99,ENE,71,9.0,13.0,100,0.00,,,0.00,Wunderground v.1.15,2013-11-15 16:30:00,
2013-11-15 11:40:00,78.5,78.5,29.99,East,82,10.0,10.0,100,0.00,,,0.00,Wunderground v.1.15,2013-11-15 16:40:00,
2013-11-15 11:45:00,78.6,78.6,29.98,NE,56,10.0,10.0,100,0.00,,,0.00,Wunderground v.1.15,2013-11-15 16:45:00,
2013-11-15 11:55:00,78.5,78.5,29.98,ENE,64,10.0,13.0,100,0.00,,,0.00,Wunderground v.1.15,2013-11-15 16:55:00,
2013-11-15 12:00:00,78.5,78.5,29.97,ENE,58,10.0,16.0,100,0.00,,,0.00,Wunderground v.1.15,2013-11-15 17:00:00,
2013-11-15 12:10:00,78.6,78.6,29.97,NE,37,11.0,12.0,100,0.00,,,0.00,Wunderground v.1.15,2013-11-15 17:10:00,
2013-11-15 12:15:00,78.6,78.6,29.97,ENE,62,10.0,12.0,100,0.00,,,0.00,Wunderground v.1.15,2013-11-15 17:15:00,
2013-11-15 12:25:00,78.6,78.6,29.97,ENE,61,9.0,12.0,100,0.00,,,0.00,Wunderground v.1.15,2013-11-15 17:25:00,
2013-11-15 12:30:00,78.6,78.6,29.96,ENE,65,10.0,10.0,100,0.00,,,0.00,Wunderground v.1.15,2013-11-15 17:30:00,
2013-11-15 12:40:00,78.6,78.6,29.96,ENE,58,11.0,11.0,100,0.00,,,0.00,Wunderground v.1.15,2013-11-15 17:40:00,
2013-11-15 12:50:00,78.6,78.6,29.95,ESE,104,11.0,11.0,100,0.00,,,0.00,Wunderground v.1.15,2013-11-15 17:50:00,
2013-11-15 13:00:00,78.8,78.8,29.94,ENE,73,12.0,15.0,100,0.00,,,0.00,Wunderground v.1.15,2013-11-15 18:00:00,
2013-11-15 13:10:00,79.0,79.0,29.94,ENE,61,11.0,20.0,100,0.00,,,0.00,Wunderground v.1.15,2013-11-15 18:10:00,
2013-11-15 13:20:00,79.2,79.2,29.93,ENE,76,11.0,11.0,100,0.00,,,0.00,Wunderground v.1.15,2013-11-15 18:20:00,
2013-11-15 13:25:00,78.8,78.8,29.93,East,82,9.0,14.0,100,0.00,,,0.00,Wunderground v.1.15,2013-11-15 18:25:00,
2013-11-15 13:35:00,78.8,78.8,29.92,NE,56,13.0,18.0,100,0.00,,,0.00,Wunderground v.1.15,2013-11-15 18:35:00,
2013-11-15 13:45:00,78.8,78.8,29.91,ENE,64,12.0,12.0,100,0.00,,,0.00,Wunderground v.1.15,2013-11-15 18:45:00,
2013-11-15 13:50:00,79.2,79.2,29.91,ENE,66,12.0,13.0,100,0.00,,,0.00,Wunderground v.1.15,2013-11-15 18:50:00,
2013-11-15 14:00:00,79.0,79.0,29.90,ENE,66,11.0,13.0,100,0.00,,,0.00,Wunderground v.1.15,2013-11-15 19:00:00,
2013-11-15 14:15:00,79.0,79.0,29.90,ENE,62,12.0,14.0,100,0.00,,,0.00,Wunderground v.1.15,2013-11-15 19:15:00,
2013-11-15 14:25:00,79.0,79.0,29.90,ENE,59,11.0,14.0,100,0.00,,,0.00,Wunderground v.1.15,2013-11-15 19:25:00,
2013-11-15 14:35:00,78.8,78.8,29.90,ESE,107,8.0,8.0,100,0.00,,,0.00,Wunderground v.1.15,2013-11-15 19:35:00,
2013-11-15 14:40:00,78.6,78.6,29.90,ENE,64,9.0,10.0,100,0.00,,,0.00,Wunderground v.1.15,2013-11-15 19:40:00,
2013-11-15 14:45:00,78.6,78.6,29.90,ENE,58,11.0,11.0,100,0.00,,,0.00,Wunderground v.1.15,2013-11-15 19:45:00,
2013-11-15 14:50:00,78.6,78.6,29.90,ENE,61,11.0,13.0,100,0.00,,,0.00,Wunderground v.1.15,2013-11-15 19:50:00,
2013-11-15 15:00:00,78.6,78.6,29.90,ESE,107,11.0,14.0,100,0.00,,,0.00,Wunderground v.1.15,2013-11-15 20:00:00,
2013-11-15 15:05:00,78.6,78.6,29.90,NE,48,12.0,17.0,100,0.00,,,0.00,Wunderground v.1.15,2013-11-15 20:05:00,
2013-11-15 15:15:00,78.5,78.5,29.90,NE,35,11.0,11.0,100,0.00,,,0.00,Wunderground v.1.15,2013-11-15 20:15:00,
2013-11-15 15:25:00,78.5,78.5,29.90,ENE,69,10.0,12.0,100,0.00,,,0.00,Wunderground v.1.15,2013-11-15 20:25:00,
2013-11-15 15:30:00,77.9,77.9,29.90,ENE,64,9.0,9.0,100,0.00,,,0.00,Wunderground v.1.15,2013-11-15 20:30:00,
2013-11-15 15:40:00,77.9,77.9,29.90,ENE,58,9.0,10.0,100,0.00,,,0.00,Wunderground v.1.15,2013-11-15 20:40:00,
2013-11-15 15:45:00,77.4,77.4,29.90,ENE,65,9.0,10.0,100,0.19,,,0.02,Wunderground v.1.15,2013-11-15 20:45:00,
2013-11-15 15:55:00,77.0,77.0,29.90,ENE,65,9.0,11.0,100,0.06,,,0.02,Wunderground v.1.15,2013-11-15 20:55:00,
2013-11-15 16:05:00,76.3,76.3,29.90,ENE,76,10.0,11.0,100,0.16,,,0.05,Wunderground v.1.15,2013-11-15 21:05:00,
2013-11-15 16:15:00,75.4,75.4,29.90,NNE,32,7.0,10.0,100,0.10,,,0.07,Wunderground v.1.15,2013-11-15 21:15:00,
2013-11-15 16:20:00,75.3,75.3,29.90,NNE,16,5.0,5.0,100,0.08,,,0.07,Wunderground v.1.15,2013-11-15 21:20:00,
2013-11-15 16:30:00,75.1,75.1,29.90,NNE,23,4.0,4.0,100,0.06,,,0.08,Wunderground v.1.15,2013-11-15 21:30:00,
2013-11-15 16:40:00,74.9,74.9,29.90,NE,34,6.0,6.0,100,0.05,,,0.09,Wunderground v.1.15,2013-11-15 21:40:00,
2013-11-15 16:45:00,74.9,74.9,29.90,NE,38,5.0,6.0,100,0.05,,,0.09,Wunderground v.1.15,2013-11-15 21:45:00,
2013-11-15 16:55:00,74.9,74.9,29.90,NE,55,4.0,6.0,100,0.00,,,0.09,Wunderground v.1.15,2013-11-15 21:55:00,
2013-11-15 17:05:00,74.7,74.7,29.90,NNE,17,5.0,7.0,100,0.00,,,0.09,Wunderground v.1.15,2013-11-15 22:05:00,
2013-11-15 17:15:00,74.7,74.7,29.90,North,1,6.0,6.0,100,0.00,,,0.09,Wunderground v.1.15,2013-11-15 22:15:00,
2013-11-15 17:25:00,74.7,74.7,29.90,NNE,18,5.0,7.0,100,0.00,,,0.10,Wunderground v.1.15,2013-11-15 22:25:00,
2013-11-15 17:30:00,74.7,74.7,29.91,NNE,13,5.0,5.0,100,0.00,,,0.10,Wunderground v.1.15,2013-11-15 22:30:00,
2013-11-15 17:35:00,74.7,74.7,29.91,NNE,13,5.0,5.0,100,0.00,,,0.10,Wunderground v.1.15,2013-11-15 22:35:00,
2013-11-15 17:45:00,74.6,74.6,29.91,NNE,13,4.0,8.0,100,0.00,,,0.10,Wunderground v.1.15,2013-11-15 22:45:00,
2013-11-15 17:55:00,74.6,74.6,29.91,North,10,6.0,6.0,100,0.00,,,0.10,Wunderground v.1.15,2013-11-15 22:55:00,
2013-11-15 18:05:00,74.6,74.6,29.89,North,4,6.0,8.0,100,0.00,,,0.10,Wunderground v.1.15,2013-11-15 23:05:00,
2013-11-15 18:10:00,74.6,74.6,29.89,NNE,13,6.0,8.0,100,0.00,,,0.10,Wunderground v.1.15,2013-11-15 23:10:00,
2013-11-15 18:20:00,74.4,74.4,29.90,NNE,18,5.0,5.0,100,0.00,,,0.10,Wunderground v.1.15,2013-11-15 23:20:00,
2013-11-15 18:25:00,74.4,74.4,29.90,NNE,23,5.0,5.0,100,0.00,,,0.10,Wunderground v.1.15,2013-11-15 23:25:00,
2013-11-15 18:35:00,74.4,74.4,29.90,North,8,5.0,6.0,100,0.00,,,0.11,Wunderground v.1.15,2013-11-15 23:35:00,
2013-11-15 18:40:00,74.4,74.4,29.90,North,11,4.0,6.0,100,0.00,,,0.11,Wunderground v.1.15,2013-11-15 23:40:00,
2013-11-15 18:50:00,74.2,74.2,29.90,NNE,21,5.0,8.0,100,0.21,,,0.14,Wunderground v.1.15,2013-11-15 23:50:00,
2013-11-15 19:00:00,74.2,74.2,29.91,ENE,66,5.0,5.0,100,0.05,,,0.14,Wunderground v.1.15,2013-11-16 00:00:00,
2013-11-15 19:10:00,74.2,74.2,29.91,NNE,18,6.0,7.0,100,0.04,,,0.15,Wunderground v.1.15,2013-11-16 00:10:00,
2013-11-15 19:15:00,74.2,74.2,29.91,North,7,6.0,9.0,100,0.04,,,0.15,Wunderground v.1.15,2013-11-16 00:15:00,
2013-11-15 19:25:00,74.2,74.2,29.91,NNE,21,5.0,6.0,100,0.00,,,0.15,Wunderground v.1.15,2013-11-16 00:25:00,
2013-11-15 19:35:00,74.2,74.2,29.91,NNE,28,5.0,7.0,100,0.00,,,0.15,Wunderground v.1.15,2013-11-16 00:35:00,
2013-11-15 19:40:00,74.4,74.4,29.91,NE,42,5.0,9.0,100,0.00,,,0.15,Wunderground v.1.15,2013-11-16 00:40:00,
2013-11-15 19:50:00,74.4,74.4,29.91,NNE,17,6.0,8.0,100,0.00,,,0.15,Wunderground v.1.15,2013-11-16 00:50:00,
2013-11-15 19:55:00,74.6,74.6,29.91,NE,42,6.0,8.0,100,0.00,,,0.15,Wunderground v.1.15,2013-11-16 00:55:00,
2013-11-15 20:05:00,74.7,74.7,29.91,NE,54,5.0,6.0,100,0.13,,,0.17,Wunderground v.1.15,2013-11-16 01:05:00,
2013-11-15 20:15:00,74.9,74.9,29.92,ENE,59,4.0,7.0,100,0.05,,,0.18,Wunderground v.1.15,2013-11-16 01:15:00,
2013-11-15 20:25:00,74.9,74.9,29.92,NE,42,4.0,5.0,100,0.05,,,0.18,Wunderground v.1.15,2013-11-16 01:25:00,
2013-11-15 20:30:00,75.4,75.4,29.92,ENE,61,5.0,13.0,100,0.04,,,0.18,Wunderground v.1.15,2013-11-16 01:30:00,
2013-11-15 20:40:00,76.5,76.5,29.92,NE,51,10.0,10.0,100,0.00,,,0.18,Wunderground v.1.15,2013-11-16 01:40:00,
2013-11-15 20:50:00,77.4,77.4,29.92,East,90,11.0,11.0,100,0.00,,,0.18,Wunderground v.1.15,2013-11-16 01:50:00,
2013-11-15 20:55:00,77.7,77.7,29.92,NNE,30,12.0,12.0,100,0.00,,,0.18,Wunderground v.1.15,2013-11-16 01:55:00,
2013-11-15 21:05:00,78.3,78.3,29.92,ENE,58,13.0,19.0,100,0.00,,,0.18,Wunderground v.1.15,2013-11-16 02:05:00,
2013-11-15 21:10:00,78.5,78.5,29.92,ENE,65,12.0,12.0,100,0.00,,,0.18,Wunderground v.1.15,2013-11-16 02:10:00,
2013-11-15 21:20:00,78.6,78.6,29.93,ENE,71,13.0,13.0,100,0.00,,,0.18,Wunderground v.1.15,2013-11-16 02:20:00,
2013-11-15 21:25:00,78.5,78.5,29.93,East,95,12.0,13.0,100,0.00,,,0.18,Wunderground v.1.15,2013-11-16 02:25:00,
2013-11-15 21:35:00,78.5,78.5,29.93,East,100,10.0,14.0,100,0.00,,,0.18,Wunderground v.1.15,2013-11-16 02:35:00,
2013-11-15 21:40:00,78.6,78.6,29.93,NE,54,12.0,14.0,100,0.00,,,0.18,Wunderground v.1.15,2013-11-16 02:40:00,
2013-11-15 21:50:00,78.5,78.5,29.94,ENE,72,11.0,14.0,100,0.00,,,0.18,Wunderground v.1.15,2013-11-16 02:50:00,
2013-11-15 22:00:00,78.6,78.6,29.93,NE,45,13.0,13.0,100,0.00,,,0.18,Wunderground v.1.15,2013-11-16 03:00:00,
2013-11-15 22:10:00,78.6,78.6,29.93,ENE,61,12.0,12.0,100,0.00,,,0.18,Wunderground v.1.15,2013-11-16 03:10:00,
2013-11-15 22:20:00,78.8,78.8,29.94,East,79,10.0,13.0,100,0.00,,,0.18,Wunderground v.1.15,2013-11-16 03:20:00,
2013-11-15 22:25:00,78.5,78.5,29.94,ENE,75,10.0,13.0,100,0.00,,,0.18,Wunderground v.1.15,2013-11-16 03:25:00,
2013-11-15 22:35:00,78.1,78.1,29.94,East,79,11.0,12.0,100,0.00,,,0.18,Wunderground v.1.15,2013-11-16 03:35:00,
2013-11-15 22:40:00,77.9,77.9,29.94,ENE,69,9.0,9.0,100,0.00,,,0.18,Wunderground v.1.15,2013-11-16 03:40:00,
2013-11-15 22:50:00,77.9,77.9,29.94,East,80,10.0,10.0,100,0.00,,,0.18,Wunderground v.1.15,2013-11-16 03:50:00,
2013-11-15 22:55:00,78.1,78.1,29.94,East,89,10.0,12.0,100,0.00,,,0.18,Wunderground v.1.15,2013-11-16 03:55:00,
2013-11-15 23:05:00,77.7,77.7,29.93,East,90,10.0,12.0,100,0.00,,,0.18,Wunderground v.1.15,2013-11-16 04:05:00,
2013-11-15 23:15:00,78.1,78.1,29.93,East,86,10.0,12.0,100,0.00,,,0.18,Wunderground v.1.15,2013-11-16 04:15:00,
2013-11-15 23:25:00,78.1,78.1,29.93,ESE,120,10.0,12.0,100,0.00,,,0.18,Wunderground v.1.15,2013-11-16 04:25:00,